Time;durP1;ratioP1;P1;durP2;ratioP2;P2;SDS_P1;SDS_P2;PMS_P1;PMS_P2;Temp;Humidity;BMP_temperature;BMP_pressure;BME280_temperature;BME280_humidity;BME280_pressure;Samples;Min_cycle;Max_cycle;Signal;HPM_P1;HPM_P2
2022/12/26 00:07:13;;;;;;;0.20;0.10;;;13.50;99.90;;;;;;21009112;28;20410;-72
2022/12/26 00:17:17;;;;;;;0.20;0.10;;;13.00;99.90;;;;;;20960664;28;20409;-72
2022/12/26 00:27:22;;;;;;;0.20;0.00;;;13.00;99.90;;;;;;20985575;28;20831;-71
2022/12/26 00:37:26;;;;;;;0.20;0.10;;;12.80;99.90;;;;;;21005270;28;20409;-71
2022/12/26 00:47:31;;;;;;;0.20;0.10;;;11.90;99.90;;;;;;20985063;28;20410;-71
2022/12/26 00:57:35;;;;;;;0.20;0.00;;;12.20;99.90;;;;;;21004279;28;20919;-71
2022/12/26 01:07:41;;;;;;;0.20;0.10;;;13.80;99.90;;;;;;20986473;28;20409;-69
2022/12/26 01:18:05;;;;;;;0.20;0.00;;;13.80;99.90;;;;;;21003844;28;20402;-70
2022/12/26 01:28:10;;;;;;;0.20;0.10;;;14.20;99.90;;;;;;21003582;28;20420;-70
2022/12/26 01:38:14;;;;;;;0.20;0.08;;;13.90;99.90;;;;;;20999711;28;20766;-70
2022/12/26 01:48:22;;;;;;;0.20;0.10;;;13.60;99.90;;;;;;20967293;28;20410;-70
2022/12/26 01:58:32;;;;;;;0.20;0.00;;;13.40;99.90;;;;;;20988977;28;20597;-70
2022/12/26 02:08:39;;;;;;;0.20;0.07;;;13.40;99.90;;;;;;20969163;28;20468;-70
2022/12/26 02:18:42;;;;;;;0.20;0.10;;;13.00;99.90;;;;;;20987300;28;20482;-70
2022/12/26 02:29:30;;;;;;;0.20;0.00;;;12.60;99.90;;;;;;20986352;28;20406;-71
2022/12/26 02:39:53;;;;;;;0.20;0.00;;;12.60;99.90;;;;;;20985421;28;20413;-71
2022/12/26 03:21:14;;;;;;;0.20;0.07;;;12.10;99.90;;;;;;20981879;28;20788;-70
2022/12/26 03:31:18;;;;;;;0.20;0.00;;;12.10;99.90;;;;;;20958806;28;20473;-69
2022/12/26 04:44:10;;;;;;;0.20;0.00;;;10.50;99.90;;;;;;21042912;28;20407;-70
2022/12/26 04:54:14;;;;;;;0.20;0.10;;;10.60;99.90;;;;;;21005518;28;20423;-71
2022/12/26 05:14:41;;;;;;;0.20;0.10;;;10.30;99.90;;;;;;20946501;28;20920;-70
2022/12/26 05:35:09;;;;;;;0.20;0.00;;;10.60;99.90;;;;;;20967165;28;20397;-70
2022/12/26 05:45:14;;;;;;;0.20;0.00;;;10.20;99.90;;;;;;20989695;28;20406;-70
2022/12/26 05:55:19;;;;;;;0.20;0.10;;;10.40;99.90;;;;;;20986902;28;20433;-72
2022/12/26 06:05:24;;;;;;;0.20;0.10;;;10.40;99.90;;;;;;20970358;28;20406;-71
2022/12/26 06:15:28;;;;;;;0.20;0.10;;;10.30;99.90;;;;;;20987610;28;20659;-71
2022/12/26 06:25:33;;;;;;;0.20;0.00;;;10.30;99.90;;;;;;20986086;28;21126;-70
2022/12/26 06:35:37;;;;;;;0.20;0.10;;;10.20;99.90;;;;;;20985416;28;20402;-70
2022/12/26 06:45:42;;;;;;;0.20;0.10;;;10.20;99.90;;;;;;20983407;28;20895;-70
2022/12/26 06:55:46;;;;;;;0.20;0.00;;;10.00;99.90;;;;;;21007303;28;20392;-70
2022/12/26 07:05:51;;;;;;;0.20;0.03;;;10.00;99.90;;;;;;21066761;28;20442;-70
2022/12/26 07:15:58;;;;;;;0.20;0.03;;;10.10;99.90;;;;;;21047652;28;20404;-70
2022/12/26 07:26:04;;;;;;;0.20;0.10;;;10.40;99.90;;;;;;21065314;28;20408;-70
2022/12/26 07:36:08;;;;;;;0.20;0.03;;;10.70;99.90;;;;;;21028440;28;20409;-70
2022/12/26 07:46:13;;;;;;;0.20;0.10;;;10.90;99.90;;;;;;21063021;28;20473;-69
2022/12/26 07:56:17;;;;;;;0.20;0.10;;;11.10;99.90;;;;;;21061406;28;20724;-70
2022/12/26 08:06:22;;;;;;;0.20;0.10;;;11.60;99.90;;;;;;21008046;28;20414;-71
2022/12/26 08:16:27;;;;;;;0.20;0.00;;;12.50;99.90;;;;;;20932342;28;20910;-70
2022/12/26 08:26:32;;;;;;;0.20;0.00;;;13.50;99.90;;;;;;20975345;28;20425;-70
2022/12/26 08:36:36;;;;;;;0.20;0.03;;;14.40;99.90;;;;;;20964115;28;20865;-70
2022/12/26 08:46:42;;;;;;;0.20;0.05;;;15.60;99.90;;;;;;20974215;28;20501;-69
2022/12/26 08:56:46;;;;;;;0.20;0.00;;;16.90;99.90;;;;;;21027506;28;20398;-69
2022/12/26 09:06:51;;;;;;;0.20;0.00;;;17.70;99.90;;;;;;20945955;28;20911;-69
2022/12/26 09:16:55;;;;;;;0.20;0.10;;;18.10;99.90;;;;;;20974790;28;20400;-71
2022/12/26 09:27:00;;;;;;;0.20;0.00;;;18.40;99.90;;;;;;20988328;28;20422;-70
2022/12/26 09:37:04;;;;;;;0.20;0.00;;;18.80;99.90;;;;;;20990105;28;20824;-69
2022/12/26 09:47:22;;;;;;;0.20;0.00;;;18.70;99.90;;;;;;20981635;28;20413;-68
2022/12/26 09:57:31;;;;;;;0.20;0.00;;;18.70;99.90;;;;;;20975039;28;20399;-69
2022/12/26 10:07:41;;;;;;;0.20;0.00;;;18.50;99.90;;;;;;20986490;28;20508;-71
2022/12/26 10:17:51;;;;;;;0.20;0.00;;;18.70;99.90;;;;;;20967342;28;20405;-71
2022/12/26 10:27:57;;;;;;;0.20;0.00;;;19.10;99.90;;;;;;20979258;28;20414;-75
2022/12/26 10:38:13;;;;;;;0.20;0.00;;;19.80;99.90;;;;;;20980506;28;20490;-73
2022/12/26 10:48:19;;;;;;;0.20;0.00;;;20.20;99.90;;;;;;20978973;28;20438;-74
2022/12/26 10:58:29;;;;;;;0.20;0.00;;;20.20;99.90;;;;;;20940584;28;20447;-77
2022/12/26 11:08:39;;;;;;;0.20;0.00;;;20.30;99.90;;;;;;20960473;28;20421;-73
2022/12/26 11:18:49;;;;;;;0.20;0.00;;;20.60;99.90;;;;;;20962761;28;20430;-71
2022/12/26 11:29:07;;;;;;;0.20;0.10;;;20.70;99.90;;;;;;20973399;28;20449;-68
2022/12/26 11:39:21;;;;;;;0.20;0.00;;;21.10;99.90;;;;;;20938453;28;20513;-72
2022/12/26 11:49:31;;;;;;;0.20;0.00;;;22.10;99.90;;;;;;20952309;28;20406;-73
2022/12/26 11:59:34;;;;;;;0.20;0.00;;;23.30;99.90;;;;;;20954056;28;20401;-73
2022/12/26 12:09:49;;;;;;;0.20;0.00;;;23.80;99.90;;;;;;20976088;28;20420;-73
2022/12/26 12:20:05;;;;;;;0.20;0.00;;;24.80;99.90;;;;;;20937560;28;20801;-72
2022/12/26 12:30:19;;;;;;;0.20;0.10;;;25.20;99.90;;;;;;20975089;28;20489;-74
2022/12/26 12:40:33;;;;;;;0.20;0.00;;;24.50;99.90;;;;;;20935037;28;20406;-70
2022/12/26 12:50:46;;;;;;;0.20;0.10;;;24.10;99.90;;;;;;20973556;28;20427;-71
2022/12/26 13:01:00;;;;;;;0.20;0.10;;;24.10;99.90;;;;;;20949248;28;20404;-71
2022/12/26 13:11:10;;;;;;;0.20;0.00;;;24.10;99.90;;;;;;20882115;28;20550;-71
2022/12/26 13:21:15;;;;;;;0.20;0.00;;;24.00;99.90;;;;;;20869611;28;20422;-71
2022/12/26 13:31:21;;;;;;;0.20;0.00;;;24.10;99.90;;;;;;20891745;28;20415;-72
2022/12/26 13:51:54;;;;;;;0.20;0.00;;;24.00;99.90;;;;;;20907069;28;20431;-72
2022/12/26 14:02:13;;;;;;;0.20;0.10;;;21.70;99.90;;;;;;20865340;28;20847;-73
2022/12/26 14:12:39;;;;;;;0.20;0.00;;;21.20;99.90;;;;;;20905376;28;20514;-72
2022/12/26 14:22:50;;;;;;;0.20;0.10;;;21.80;99.90;;;;;;20904616;28;20437;-71
2022/12/26 14:33:22;;;;;;;0.20;0.00;;;22.50;99.90;;;;;;20903713;28;20411;-72
2022/12/26 14:43:37;;;;;;;0.20;0.00;;;22.70;99.90;;;;;;20902669;28;20836;-71
2022/12/26 14:53:43;;;;;;;0.20;0.00;;;22.20;99.90;;;;;;20883041;28;20412;-70
2022/12/26 15:03:54;;;;;;;0.20;0.00;;;22.00;99.90;;;;;;20899840;28;20415;-71
2022/12/26 15:14:37;;;;;;;0.20;0.00;;;21.80;99.90;;;;;;20882073;28;20479;-71
2022/12/26 15:25:15;;;;;;;0.20;0.00;;;21.00;99.90;;;;;;20897726;28;20422;-72
2022/12/26 15:35:32;;;;;;;0.20;0.00;;;20.90;99.90;;;;;;20816193;28;20392;-71
2022/12/26 15:45:47;;;;;;;0.20;0.00;;;20.60;99.90;;;;;;20814892;28;20475;-71
2022/12/26 15:56:15;;;;;;;0.20;0.00;;;20.60;99.90;;;;;;20806291;28;20398;-71
2022/12/26 16:06:32;;;;;;;0.20;0.00;;;19.60;99.90;;;;;;20813930;28;20447;-71
2022/12/26 16:16:38;;;;;;;0.20;0.00;;;17.80;99.90;;;;;;20813052;28;20416;-72
2022/12/26 16:26:45;;;;;;;0.20;0.10;;;16.70;99.90;;;;;;20824351;28;20410;-72
2022/12/26 16:36:51;;;;;;;0.20;0.07;;;16.10;99.90;;;;;;20876149;28;20404;-71
2022/12/26 16:46:56;;;;;;;0.20;0.10;;;15.70;99.90;;;;;;20859302;28;20415;-71
2022/12/26 16:57:07;;;;;;;0.20;0.07;;;15.50;99.90;;;;;;20892903;28;20407;-71
2022/12/26 17:07:17;;;;;;;0.20;0.10;;;15.30;99.90;;;;;;20893476;28;20466;-70
2022/12/26 17:17:31;;;;;;;0.20;0.03;;;15.00;99.90;;;;;;20908260;28;20413;-70
2022/12/26 17:27:35;;;;;;;0.20;0.00;;;14.90;99.90;;;;;;20888991;28;20762;-71
2022/12/26 17:37:41;;;;;;;0.20;0.10;;;15.00;99.90;;;;;;20906423;28;20415;-71
2022/12/26 17:47:45;;;;;;;0.20;0.10;;;14.80;99.90;;;;;;20887576;28;20419;-70
2022/12/26 17:57:51;;;;;;;0.20;0.00;;;14.70;99.90;;;;;;20905345;28;20863;-71
2022/12/26 18:07:55;;;;;;;0.20;0.10;;;14.80;99.90;;;;;;20903966;28;20449;-70
2022/12/26 18:18:00;;;;;;;0.20;0.00;;;14.70;99.90;;;;;;20902860;28;20701;-71
2022/12/26 18:28:05;;;;;;;0.20;0.00;;;14.70;99.90;;;;;;20898872;28;20412;-71
2022/12/26 18:38:13;;;;;;;0.20;0.08;;;14.60;99.90;;;;;;20899975;28;20875;-71
2022/12/26 18:48:18;;;;;;;0.20;0.00;;;14.70;99.90;;;;;;20900322;28;20898;-70
2022/12/26 18:58:24;;;;;;;0.20;0.00;;;14.10;99.90;;;;;;20899776;28;21058;-71
2022/12/26 19:08:28;;;;;;;0.20;0.10;;;13.50;99.90;;;;;;20878265;28;20415;-72
2022/12/26 19:18:33;;;;;;;0.20;0.00;;;13.20;99.90;;;;;;20879177;28;20480;-70
2022/12/26 19:28:37;;;;;;;0.20;0.10;;;13.00;99.90;;;;;;20878630;28;20429;-68
2022/12/26 19:38:42;;;;;;;0.20;0.00;;;12.50;99.90;;;;;;20877772;28;20392;-70
2022/12/26 19:48:46;;;;;;;0.20;0.00;;;12.30;99.90;;;;;;20878812;28;20414;-75
2022/12/26 19:58:52;;;;;;;0.20;0.10;;;12.10;99.90;;;;;;20889022;28;20502;-75
2022/12/26 20:09:00;;;;;;;0.20;0.00;;;11.90;99.90;;;;;;21003396;28;20464;-74
2022/12/26 20:19:05;;;;;;;0.20;0.07;;;11.50;99.90;;;;;;20956336;28;20400;-74
2022/12/26 20:29:09;;;;;;;0.20;0.00;;;11.60;99.90;;;;;;20973568;28;20413;-67
2022/12/26 20:39:17;;;;;;;0.20;0.00;;;11.60;99.90;;;;;;20972928;28;20892;-75
2022/12/26 20:49:21;;;;;;;0.20;0.00;;;11.60;99.90;;;;;;20986056;28;20499;-75
2022/12/26 20:59:27;;;;;;;0.20;0.00;;;11.60;99.90;;;;;;20989326;28;20402;-73
2022/12/26 21:09:31;;;;;;;0.20;0.00;;;11.30;99.90;;;;;;20976850;28;20404;-73
2022/12/26 21:19:36;;;;;;;0.20;0.00;;;11.10;99.90;;;;;;21042024;28;20446;-69
2022/12/26 21:29:40;;;;;;;0.20;0.00;;;11.10;99.90;;;;;;20950562;28;20413;-69
2022/12/26 21:39:45;;;;;;;0.20;0.10;;;11.30;99.90;;;;;;21016681;28;20400;-70
2022/12/26 21:49:49;;;;;;;0.20;0.00;;;11.20;99.90;;;;;;21069377;28;20504;-72
2022/12/26 21:59:58;;;;;;;0.20;0.10;;;11.10;99.90;;;;;;21041882;28;20887;-71
2022/12/26 22:10:03;;;;;;;0.20;0.10;;;10.80;99.90;;;;;;21067517;28;20465;-71
2022/12/26 22:20:09;;;;;;;0.20;0.00;;;10.80;99.90;;;;;;21067878;28;20409;-70
2022/12/26 22:30:13;;;;;;;0.20;0.00;;;10.80;99.90;;;;;;21053194;28;20425;-70
2022/12/26 22:40:18;;;;;;;0.20;0.10;;;10.60;99.90;;;;;;20943415;28;20402;-72
2022/12/26 22:50:22;;;;;;;0.20;0.10;;;11.00;99.90;;;;;;20981115;28;20414;-72
2022/12/26 23:00:28;;;;;;;0.20;0.00;;;10.80;99.90;;;;;;20980408;28;20402;-73
2022/12/26 23:10:33;;;;;;;0.20;0.10;;;10.70;99.90;;;;;;20983949;28;20500;-73
2022/12/26 23:31:02;;;;;;;0.20;0.00;;;10.30;99.90;;;;;;20952648;28;20398;-73
2022/12/26 23:41:07;;;;;;;0.20;0.00;;;10.50;99.90;;;;;;20959109;28;20481;-72
2022/12/26 23:51:11;;;;;;;0.20;0.10;;;10.50;99.90;;;;;;20978154;28;20765;-73
